sensor_id;sensor_type;location;lat;lon;timestamp;P1;durP1;ratioP1;P2;durP2;ratioP2
11220;SDS011;8517;53.546;10.104;2023-03-20T00:02:10;32.60;;;22.27;;
11220;SDS011;8517;53.546;10.104;2023-03-20T00:04:44;34.90;;;23.47;;
11220;SDS011;8517;53.546;10.104;2023-03-20T00:07:11;36.77;;;23.53;;
11220;SDS011;8517;53.546;10.104;2023-03-20T00:09:38;32.87;;;24.20;;
11220;SDS011;8517;53.546;10.104;2023-03-20T00:12:08;34.40;;;23.07;;
11220;SDS011;8517;53.546;10.104;2023-03-20T00:14:39;35.80;;;24.57;;
11220;SDS011;8517;53.546;10.104;2023-03-20T00:17:07;36.87;;;24.60;;
11220;SDS011;8517;53.546;10.104;2023-03-20T00:19:36;38.13;;;24.93;;
11220;SDS011;8517;53.546;10.104;2023-03-20T00:22:02;38.97;;;24.07;;
11220;SDS011;8517;53.546;10.104;2023-03-20T00:24:29;38.97;;;25.10;;
11220;SDS011;8517;53.546;10.104;2023-03-20T00:26:56;38.57;;;26.73;;
11220;SDS011;8517;53.546;10.104;2023-03-20T00:29:25;41.57;;;26.63;;
11220;SDS011;8517;53.546;10.104;2023-03-20T00:31:54;39.93;;;26.70;;
11220;SDS011;8517;53.546;10.104;2023-03-20T00:34:23;41.70;;;26.87;;
11220;SDS011;8517;53.546;10.104;2023-03-20T00:36:53;40.77;;;25.70;;
11220;SDS011;8517;53.546;10.104;2023-03-20T00:39:22;36.83;;;25.07;;
11220;SDS011;8517;53.546;10.104;2023-03-20T00:41:49;37.40;;;24.87;;
11220;SDS011;8517;53.546;10.104;2023-03-20T00:44:19;35.30;;;24.47;;
11220;SDS011;8517;53.546;10.104;2023-03-20T00:46:51;37.90;;;23.97;;
11220;SDS011;8517;53.546;10.104;2023-03-20T00:49:21;36.43;;;24.33;;
11220;SDS011;8517;53.546;10.104;2023-03-20T00:51:50;37.37;;;24.17;;
11220;SDS011;8517;53.546;10.104;2023-03-20T00:54:17;36.07;;;24.30;;
11220;SDS011;8517;53.546;10.104;2023-03-20T00:56:44;37.13;;;24.70;;
11220;SDS011;8517;53.546;10.104;2023-03-20T00:59:17;32.37;;;23.03;;
11220;SDS011;8517;53.546;10.104;2023-03-20T01:01:46;32.93;;;23.67;;
11220;SDS011;8517;53.546;10.104;2023-03-20T01:04:15;34.57;;;23.27;;
11220;SDS011;8517;53.546;10.104;2023-03-20T01:06:44;34.20;;;23.80;;
11220;SDS011;8517;53.546;10.104;2023-03-20T01:09:11;33.50;;;23.13;;
11220;SDS011;8517;53.546;10.104;2023-03-20T01:11:38;33.63;;;22.90;;
11220;SDS011;8517;53.546;10.104;2023-03-20T01:14:09;35.73;;;24.03;;
11220;SDS011;8517;53.546;10.104;2023-03-20T01:16:39;35.80;;;22.90;;
11220;SDS011;8517;53.546;10.104;2023-03-20T01:19:08;30.93;;;21.10;;
11220;SDS011;8517;53.546;10.104;2023-03-20T01:21:38;30.93;;;21.70;;
11220;SDS011;8517;53.546;10.104;2023-03-20T01:24:05;34.40;;;22.73;;
11220;SDS011;8517;53.546;10.104;2023-03-20T01:26:33;35.07;;;23.63;;
11220;SDS011;8517;53.546;10.104;2023-03-20T01:29:01;33.13;;;22.67;;
11220;SDS011;8517;53.546;10.104;2023-03-20T01:31:29;31.77;;;21.93;;
11220;SDS011;8517;53.546;10.104;2023-03-20T01:33:56;34.60;;;23.50;;
11220;SDS011;8517;53.546;10.104;2023-03-20T01:36:22;32.17;;;21.23;;
11220;SDS011;8517;53.546;10.104;2023-03-20T01:38:53;34.40;;;22.90;;
11220;SDS011;8517;53.546;10.104;2023-03-20T01:41:22;34.80;;;22.70;;
11220;SDS011;8517;53.546;10.104;2023-03-20T01:43:50;34.43;;;22.30;;
11220;SDS011;8517;53.546;10.104;2023-03-20T01:46:18;34.83;;;22.47;;
11220;SDS011;8517;53.546;10.104;2023-03-20T01:48:57;32.70;;;21.40;;
11220;SDS011;8517;53.546;10.104;2023-03-20T01:51:27;32.53;;;22.17;;
11220;SDS011;8517;53.546;10.104;2023-03-20T01:53:58;30.57;;;21.77;;
11220;SDS011;8517;53.546;10.104;2023-03-20T01:56:29;34.43;;;23.43;;
11220;SDS011;8517;53.546;10.104;2023-03-20T01:59:01;31.03;;;21.60;;
11220;SDS011;8517;53.546;10.104;2023-03-20T02:01:33;28.83;;;20.97;;
11220;SDS011;8517;53.546;10.104;2023-03-20T02:04:00;32.93;;;22.37;;
11220;SDS011;8517;53.546;10.104;2023-03-20T02:06:28;32.00;;;21.23;;
11220;SDS011;8517;53.546;10.104;2023-03-20T02:08:55;29.77;;;20.40;;
11220;SDS011;8517;53.546;10.104;2023-03-20T02:11:23;37.40;;;22.50;;
11220;SDS011;8517;53.546;10.104;2023-03-20T02:13:52;33.47;;;21.80;;
11220;SDS011;8517;53.546;10.104;2023-03-20T02:16:21;33.30;;;19.97;;
11220;SDS011;8517;53.546;10.104;2023-03-20T02:18:49;29.27;;;18.80;;
11220;SDS011;8517;53.546;10.104;2023-03-20T02:24:24;30.63;;;19.70;;
11220;SDS011;8517;53.546;10.104;2023-03-20T02:27:18;31.97;;;20.93;;
11220;SDS011;8517;53.546;10.104;2023-03-20T02:30:06;33.23;;;20.70;;
11220;SDS011;8517;53.546;10.104;2023-03-20T02:33:19;29.63;;;19.37;;
11220;SDS011;8517;53.546;10.104;2023-03-20T02:39:30;33.97;;;21.93;;
11220;SDS011;8517;53.546;10.104;2023-03-20T02:42:10;34.30;;;21.30;;
11220;SDS011;8517;53.546;10.104;2023-03-20T02:44:45;34.43;;;21.73;;
11220;SDS011;8517;53.546;10.104;2023-03-20T02:47:18;29.70;;;19.43;;
11220;SDS011;8517;53.546;10.104;2023-03-20T02:49:51;30.23;;;19.33;;
11220;SDS011;8517;53.546;10.104;2023-03-20T02:52:21;31.60;;;18.57;;
11220;SDS011;8517;53.546;10.104;2023-03-20T02:54:59;36.27;;;21.40;;
11220;SDS011;8517;53.546;10.104;2023-03-20T02:57:38;36.00;;;21.73;;
11220;SDS011;8517;53.546;10.104;2023-03-20T03:00:11;34.07;;;19.77;;
11220;SDS011;8517;53.546;10.104;2023-03-20T03:02:41;36.37;;;21.50;;
11220;SDS011;8517;53.546;10.104;2023-03-20T03:05:14;32.57;;;20.17;;
11220;SDS011;8517;53.546;10.104;2023-03-20T03:07:46;26.93;;;17.63;;
11220;SDS011;8517;53.546;10.104;2023-03-20T03:10:19;27.37;;;16.87;;
11220;SDS011;8517;53.546;10.104;2023-03-20T03:12:50;24.20;;;15.03;;
11220;SDS011;8517;53.546;10.104;2023-03-20T03:15:19;23.87;;;14.20;;
11220;SDS011;8517;53.546;10.104;2023-03-20T03:17:51;21.87;;;14.73;;
11220;SDS011;8517;53.546;10.104;2023-03-20T03:20:21;19.50;;;13.60;;
11220;SDS011;8517;53.546;10.104;2023-03-20T03:22:49;20.50;;;13.30;;
11220;SDS011;8517;53.546;10.104;2023-03-20T03:25:16;20.13;;;14.13;;
11220;SDS011;8517;53.546;10.104;2023-03-20T03:27:46;18.20;;;13.20;;
11220;SDS011;8517;53.546;10.104;2023-03-20T03:30:20;19.67;;;13.73;;
11220;SDS011;8517;53.546;10.104;2023-03-20T03:32:56;18.83;;;13.23;;
11220;SDS011;8517;53.546;10.104;2023-03-20T03:35:34;16.70;;;12.27;;
11220;SDS011;8517;53.546;10.104;2023-03-20T03:38:02;18.80;;;13.17;;
11220;SDS011;8517;53.546;10.104;2023-03-20T03:40:39;19.20;;;13.07;;
11220;SDS011;8517;53.546;10.104;2023-03-20T03:43:11;19.23;;;12.63;;
11220;SDS011;8517;53.546;10.104;2023-03-20T03:45:43;20.47;;;12.70;;
11220;SDS011;8517;53.546;10.104;2023-03-20T03:48:16;16.10;;;12.20;;
11220;SDS011;8517;53.546;10.104;2023-03-20T03:50:46;16.90;;;12.60;;
11220;SDS011;8517;53.546;10.104;2023-03-20T03:53:17;14.97;;;11.53;;
11220;SDS011;8517;53.546;10.104;2023-03-20T03:55:49;16.77;;;12.17;;
11220;SDS011;8517;53.546;10.104;2023-03-20T03:58:18;16.97;;;11.50;;
11220;SDS011;8517;53.546;10.104;2023-03-20T04:00:48;15.83;;;11.37;;
11220;SDS011;8517;53.546;10.104;2023-03-20T04:03:17;14.83;;;10.50;;
11220;SDS011;8517;53.546;10.104;2023-03-20T04:05:47;13.97;;;11.20;;
11220;SDS011;8517;53.546;10.104;2023-03-20T04:08:17;15.40;;;10.87;;
11220;SDS011;8517;53.546;10.104;2023-03-20T04:10:43;13.13;;;9.30;;
11220;SDS011;8517;53.546;10.104;2023-03-20T04:13:12;12.80;;;9.03;;
11220;SDS011;8517;53.546;10.104;2023-03-20T04:15:40;11.43;;;8.70;;
11220;SDS011;8517;53.546;10.104;2023-03-20T04:18:07;10.57;;;8.03;;
11220;SDS011;8517;53.546;10.104;2023-03-20T04:20:39;9.13;;;7.73;;
11220;SDS011;8517;53.546;10.104;2023-03-20T04:23:06;9.90;;;7.70;;
11220;SDS011;8517;53.546;10.104;2023-03-20T04:25:33;10.40;;;8.17;;
11220;SDS011;8517;53.546;10.104;2023-03-20T04:28:00;10.97;;;8.30;;
11220;SDS011;8517;53.546;10.104;2023-03-20T04:30:28;9.77;;;7.83;;
11220;SDS011;8517;53.546;10.104;2023-03-20T04:32:55;9.17;;;7.87;;
11220;SDS011;8517;53.546;10.104;2023-03-20T04:35:22;10.90;;;8.33;;
11220;SDS011;8517;53.546;10.104;2023-03-20T04:37:49;9.53;;;7.47;;
11220;SDS011;8517;53.546;10.104;2023-03-20T04:40:16;9.83;;;8.40;;
11220;SDS011;8517;53.546;10.104;2023-03-20T04:42:42;9.77;;;8.07;;
11220;SDS011;8517;53.546;10.104;2023-03-20T04:45:09;10.77;;;8.60;;
11220;SDS011;8517;53.546;10.104;2023-03-20T04:47:37;11.03;;;8.63;;
11220;SDS011;8517;53.546;10.104;2023-03-20T04:50:05;11.77;;;8.33;;
11220;SDS011;8517;53.546;10.104;2023-03-20T04:52:32;10.87;;;8.60;;
11220;SDS011;8517;53.546;10.104;2023-03-20T04:54:59;12.87;;;9.20;;
11220;SDS011;8517;53.546;10.104;2023-03-20T04:57:25;11.00;;;8.27;;
11220;SDS011;8517;53.546;10.104;2023-03-20T04:59:52;11.13;;;8.40;;
11220;SDS011;8517;53.546;10.104;2023-03-20T05:02:19;10.67;;;7.80;;
11220;SDS011;8517;53.546;10.104;2023-03-20T05:04:47;10.97;;;8.37;;
11220;SDS011;8517;53.546;10.104;2023-03-20T05:07:15;10.07;;;7.03;;
11220;SDS011;8517;53.546;10.104;2023-03-20T05:09:41;10.27;;;7.27;;
11220;SDS011;8517;53.546;10.104;2023-03-20T05:12:08;7.37;;;6.13;;
11220;SDS011;8517;53.546;10.104;2023-03-20T05:14:35;8.07;;;6.83;;
11220;SDS011;8517;53.546;10.104;2023-03-20T05:17:02;9.30;;;6.83;;
11220;SDS011;8517;53.546;10.104;2023-03-20T05:19:29;7.90;;;6.47;;
11220;SDS011;8517;53.546;10.104;2023-03-20T05:21:57;9.90;;;6.70;;
11220;SDS011;8517;53.546;10.104;2023-03-20T05:24:25;9.57;;;7.00;;
11220;SDS011;8517;53.546;10.104;2023-03-20T05:26:53;19.27;;;14.47;;
11220;SDS011;8517;53.546;10.104;2023-03-20T05:29:19;9.50;;;7.00;;
11220;SDS011;8517;53.546;10.104;2023-03-20T05:31:46;8.43;;;6.90;;
11220;SDS011;8517;53.546;10.104;2023-03-20T05:34:13;9.27;;;6.87;;
11220;SDS011;8517;53.546;10.104;2023-03-20T05:36:40;8.47;;;6.63;;
11220;SDS011;8517;53.546;10.104;2023-03-20T05:39:08;9.63;;;6.97;;
11220;SDS011;8517;53.546;10.104;2023-03-20T05:41:35;8.50;;;6.97;;
11220;SDS011;8517;53.546;10.104;2023-03-20T05:44:02;8.83;;;7.00;;
11220;SDS011;8517;53.546;10.104;2023-03-20T05:46:29;10.40;;;7.83;;
11220;SDS011;8517;53.546;10.104;2023-03-20T05:48:56;9.83;;;6.97;;
11220;SDS011;8517;53.546;10.104;2023-03-20T05:51:22;9.60;;;7.43;;
11220;SDS011;8517;53.546;10.104;2023-03-20T05:53:49;10.43;;;7.60;;
11220;SDS011;8517;53.546;10.104;2023-03-20T05:56:17;91.07;;;65.30;;
11220;SDS011;8517;53.546;10.104;2023-03-20T05:58:44;17.27;;;13.43;;
11220;SDS011;8517;53.546;10.104;2023-03-20T06:01:11;10.47;;;8.23;;
11220;SDS011;8517;53.546;10.104;2023-03-20T06:03:40;9.23;;;7.60;;
11220;SDS011;8517;53.546;10.104;2023-03-20T06:06:07;8.80;;;7.10;;
11220;SDS011;8517;53.546;10.104;2023-03-20T06:08:34;10.80;;;7.63;;
11220;SDS011;8517;53.546;10.104;2023-03-20T06:11:01;8.97;;;7.10;;
11220;SDS011;8517;53.546;10.104;2023-03-20T06:13:29;8.70;;;7.07;;
11220;SDS011;8517;53.546;10.104;2023-03-20T06:15:56;9.13;;;7.27;;
11220;SDS011;8517;53.546;10.104;2023-03-20T06:18:23;10.63;;;8.23;;
11220;SDS011;8517;53.546;10.104;2023-03-20T06:20:51;8.40;;;7.20;;
11220;SDS011;8517;53.546;10.104;2023-03-20T06:23:18;16.67;;;14.83;;
11220;SDS011;8517;53.546;10.104;2023-03-20T06:25:45;35.20;;;24.53;;
11220;SDS011;8517;53.546;10.104;2023-03-20T06:28:12;12.00;;;8.70;;
11220;SDS011;8517;53.546;10.104;2023-03-20T06:30:41;12.60;;;9.77;;
11220;SDS011;8517;53.546;10.104;2023-03-20T06:33:08;9.37;;;8.33;;
11220;SDS011;8517;53.546;10.104;2023-03-20T06:35:36;10.73;;;8.13;;
11220;SDS011;8517;53.546;10.104;2023-03-20T06:38:02;9.90;;;8.10;;
11220;SDS011;8517;53.546;10.104;2023-03-20T06:40:31;10.90;;;8.20;;
11220;SDS011;8517;53.546;10.104;2023-03-20T06:46:06;9.57;;;7.97;;
11220;SDS011;8517;53.546;10.104;2023-03-20T06:48:40;10.07;;;7.60;;
11220;SDS011;8517;53.546;10.104;2023-03-20T06:51:22;8.70;;;7.80;;
11220;SDS011;8517;53.546;10.104;2023-03-20T06:54:10;9.23;;;6.63;;
11220;SDS011;8517;53.546;10.104;2023-03-20T06:56:46;8.20;;;6.57;;
11220;SDS011;8517;53.546;10.104;2023-03-20T06:59:13;8.27;;;6.50;;
11220;SDS011;8517;53.546;10.104;2023-03-20T07:01:41;7.77;;;6.20;;
11220;SDS011;8517;53.546;10.104;2023-03-20T07:04:09;8.53;;;5.73;;
11220;SDS011;8517;53.546;10.104;2023-03-20T07:06:36;8.47;;;6.07;;
11220;SDS011;8517;53.546;10.104;2023-03-20T07:09:03;18.67;;;14.50;;
11220;SDS011;8517;53.546;10.104;2023-03-20T07:11:33;9.43;;;7.20;;
11220;SDS011;8517;53.546;10.104;2023-03-20T07:14:00;7.83;;;5.97;;
11220;SDS011;8517;53.546;10.104;2023-03-20T07:16:27;7.87;;;6.60;;
11220;SDS011;8517;53.546;10.104;2023-03-20T07:18:57;8.10;;;5.90;;
11220;SDS011;8517;53.546;10.104;2023-03-20T07:21:26;8.70;;;6.57;;
11220;SDS011;8517;53.546;10.104;2023-03-20T07:23:55;7.60;;;6.27;;
11220;SDS011;8517;53.546;10.104;2023-03-20T07:26:22;7.30;;;6.10;;
11220;SDS011;8517;53.546;10.104;2023-03-20T07:28:51;8.30;;;6.53;;
11220;SDS011;8517;53.546;10.104;2023-03-20T07:31:18;9.53;;;6.97;;
11220;SDS011;8517;53.546;10.104;2023-03-20T07:33:47;9.50;;;6.80;;
11220;SDS011;8517;53.546;10.104;2023-03-20T07:36:15;9.97;;;7.57;;
11220;SDS011;8517;53.546;10.104;2023-03-20T07:38:42;8.17;;;6.73;;
11220;SDS011;8517;53.546;10.104;2023-03-20T07:41:08;10.70;;;7.00;;
11220;SDS011;8517;53.546;10.104;2023-03-20T07:43:37;10.40;;;7.10;;
11220;SDS011;8517;53.546;10.104;2023-03-20T07:46:04;10.10;;;7.67;;
11220;SDS011;8517;53.546;10.104;2023-03-20T07:48:33;7.73;;;6.83;;
11220;SDS011;8517;53.546;10.104;2023-03-20T07:51:00;9.07;;;7.03;;
11220;SDS011;8517;53.546;10.104;2023-03-20T07:53:29;7.53;;;6.10;;
11220;SDS011;8517;53.546;10.104;2023-03-20T07:55:56;9.37;;;6.13;;
11220;SDS011;8517;53.546;10.104;2023-03-20T07:58:23;10.00;;;5.83;;
11220;SDS011;8517;53.546;10.104;2023-03-20T08:00:50;8.33;;;6.00;;
11220;SDS011;8517;53.546;10.104;2023-03-20T08:03:21;8.07;;;5.77;;
11220;SDS011;8517;53.546;10.104;2023-03-20T08:05:49;7.30;;;5.20;;
11220;SDS011;8517;53.546;10.104;2023-03-20T08:08:16;10.57;;;8.13;;
11220;SDS011;8517;53.546;10.104;2023-03-20T08:10:45;11.47;;;6.90;;
11220;SDS011;8517;53.546;10.104;2023-03-20T08:13:12;8.53;;;5.00;;
11220;SDS011;8517;53.546;10.104;2023-03-20T08:15:42;8.27;;;5.07;;
11220;SDS011;8517;53.546;10.104;2023-03-20T08:18:09;7.60;;;5.10;;
11220;SDS011;8517;53.546;10.104;2023-03-20T08:20:38;6.17;;;4.67;;
11220;SDS011;8517;53.546;10.104;2023-03-20T08:23:05;6.90;;;5.40;;
11220;SDS011;8517;53.546;10.104;2023-03-20T08:25:32;6.93;;;4.73;;
11220;SDS011;8517;53.546;10.104;2023-03-20T08:28:00;5.80;;;5.07;;
11220;SDS011;8517;53.546;10.104;2023-03-20T08:30:27;7.87;;;5.23;;
11220;SDS011;8517;53.546;10.104;2023-03-20T08:32:55;7.10;;;4.70;;
11220;SDS011;8517;53.546;10.104;2023-03-20T08:35:23;7.47;;;5.00;;
11220;SDS011;8517;53.546;10.104;2023-03-20T08:37:50;4.90;;;4.10;;
11220;SDS011;8517;53.546;10.104;2023-03-20T08:40:17;7.60;;;4.60;;
11220;SDS011;8517;53.546;10.104;2023-03-20T08:42:44;7.77;;;4.97;;
11220;SDS011;8517;53.546;10.104;2023-03-20T08:45:12;8.33;;;5.20;;
11220;SDS011;8517;53.546;10.104;2023-03-20T08:47:39;7.47;;;4.90;;
11220;SDS011;8517;53.546;10.104;2023-03-20T08:50:09;7.37;;;5.47;;
11220;SDS011;8517;53.546;10.104;2023-03-20T08:52:40;6.37;;;5.10;;
11220;SDS011;8517;53.546;10.104;2023-03-20T08:55:08;6.27;;;4.93;;
11220;SDS011;8517;53.546;10.104;2023-03-20T08:57:36;7.10;;;5.97;;
11220;SDS011;8517;53.546;10.104;2023-03-20T09:00:03;8.17;;;6.23;;
11220;SDS011;8517;53.546;10.104;2023-03-20T09:02:32;10.23;;;5.50;;
11220;SDS011;8517;53.546;10.104;2023-03-20T09:05:00;7.67;;;5.93;;
11220;SDS011;8517;53.546;10.104;2023-03-20T09:07:26;8.97;;;6.30;;
11220;SDS011;8517;53.546;10.104;2023-03-20T09:09:53;8.50;;;6.00;;
11220;SDS011;8517;53.546;10.104;2023-03-20T09:12:20;11.83;;;8.37;;
11220;SDS011;8517;53.546;10.104;2023-03-20T09:14:48;8.80;;;6.13;;
11220;SDS011;8517;53.546;10.104;2023-03-20T09:17:17;7.97;;;6.10;;
11220;SDS011;8517;53.546;10.104;2023-03-20T09:19:45;11.27;;;6.27;;
11220;SDS011;8517;53.546;10.104;2023-03-20T09:22:12;7.50;;;6.50;;
11220;SDS011;8517;53.546;10.104;2023-03-20T09:24:44;5.73;;;5.10;;
11220;SDS011;8517;53.546;10.104;2023-03-20T09:27:11;7.40;;;4.80;;
11220;SDS011;8517;53.546;10.104;2023-03-20T09:29:38;11.20;;;6.37;;
11220;SDS011;8517;53.546;10.104;2023-03-20T09:32:09;9.27;;;5.70;;
11220;SDS011;8517;53.546;10.104;2023-03-20T09:34:39;7.03;;;5.40;;
11220;SDS011;8517;53.546;10.104;2023-03-20T09:37:07;8.17;;;6.33;;
11220;SDS011;8517;53.546;10.104;2023-03-20T09:39:35;7.73;;;5.67;;
11220;SDS011;8517;53.546;10.104;2023-03-20T09:42:03;8.43;;;6.57;;
11220;SDS011;8517;53.546;10.104;2023-03-20T09:44:42;8.47;;;6.50;;
11220;SDS011;8517;53.546;10.104;2023-03-20T09:47:18;9.80;;;6.37;;
11220;SDS011;8517;53.546;10.104;2023-03-20T09:50:03;7.77;;;5.47;;
11220;SDS011;8517;53.546;10.104;2023-03-20T09:52:40;9.70;;;5.97;;
11220;SDS011;8517;53.546;10.104;2023-03-20T09:55:12;5.27;;;4.77;;
11220;SDS011;8517;53.546;10.104;2023-03-20T09:57:41;8.20;;;6.43;;
11220;SDS011;8517;53.546;10.104;2023-03-20T10:00:12;9.07;;;6.63;;
11220;SDS011;8517;53.546;10.104;2023-03-20T10:02:44;9.27;;;6.53;;
11220;SDS011;8517;53.546;10.104;2023-03-20T10:05:16;12.63;;;7.13;;
11220;SDS011;8517;53.546;10.104;2023-03-20T10:07:52;8.10;;;6.70;;
11220;SDS011;8517;53.546;10.104;2023-03-20T10:10:21;9.30;;;6.60;;
11220;SDS011;8517;53.546;10.104;2023-03-20T10:12:58;9.83;;;6.80;;
11220;SDS011;8517;53.546;10.104;2023-03-20T10:15:37;11.17;;;7.20;;
11220;SDS011;8517;53.546;10.104;2023-03-20T10:18:13;10.03;;;7.10;;
11220;SDS011;8517;53.546;10.104;2023-03-20T10:20:47;13.57;;;8.17;;
11220;SDS011;8517;53.546;10.104;2023-03-20T10:23:23;10.33;;;7.73;;
11220;SDS011;8517;53.546;10.104;2023-03-20T10:25:57;11.80;;;8.13;;
11220;SDS011;8517;53.546;10.104;2023-03-20T10:28:30;10.17;;;7.30;;
11220;SDS011;8517;53.546;10.104;2023-03-20T10:31:22;13.77;;;7.33;;
11220;SDS011;8517;53.546;10.104;2023-03-20T10:34:20;9.53;;;6.83;;
11220;SDS011;8517;53.546;10.104;2023-03-20T10:36:58;12.17;;;7.37;;
11220;SDS011;8517;53.546;10.104;2023-03-20T10:39:40;9.53;;;7.20;;
11220;SDS011;8517;53.546;10.104;2023-03-20T10:42:18;10.80;;;7.27;;
11220;SDS011;8517;53.546;10.104;2023-03-20T10:44:49;8.90;;;6.07;;
11220;SDS011;8517;53.546;10.104;2023-03-20T10:47:20;9.37;;;6.90;;
11220;SDS011;8517;53.546;10.104;2023-03-20T10:49:53;10.50;;;6.20;;
11220;SDS011;8517;53.546;10.104;2023-03-20T10:52:24;11.37;;;6.70;;
11220;SDS011;8517;53.546;10.104;2023-03-20T10:54:55;12.50;;;7.23;;
11220;SDS011;8517;53.546;10.104;2023-03-20T10:57:26;10.07;;;6.83;;
11220;SDS011;8517;53.546;10.104;2023-03-20T10:59:56;12.00;;;6.60;;
11220;SDS011;8517;53.546;10.104;2023-03-20T11:02:27;9.60;;;6.40;;
11220;SDS011;8517;53.546;10.104;2023-03-20T11:04:55;11.90;;;7.20;;
11220;SDS011;8517;53.546;10.104;2023-03-20T11:07:26;11.37;;;6.93;;
11220;SDS011;8517;53.546;10.104;2023-03-20T11:10:10;11.47;;;7.03;;
11220;SDS011;8517;53.546;10.104;2023-03-20T11:12:41;8.10;;;6.23;;
11220;SDS011;8517;53.546;10.104;2023-03-20T11:15:20;8.10;;;6.00;;
11220;SDS011;8517;53.546;10.104;2023-03-20T11:18:35;7.40;;;5.97;;
11220;SDS011;8517;53.546;10.104;2023-03-20T11:21:43;12.33;;;6.03;;
11220;SDS011;8517;53.546;10.104;2023-03-20T11:24:22;10.23;;;5.90;;
11220;SDS011;8517;53.546;10.104;2023-03-20T11:29:44;10.37;;;6.17;;
11220;SDS011;8517;53.546;10.104;2023-03-20T11:32:16;12.00;;;7.17;;
11220;SDS011;8517;53.546;10.104;2023-03-20T11:34:51;8.17;;;6.07;;
11220;SDS011;8517;53.546;10.104;2023-03-20T11:37:22;11.47;;;6.20;;
11220;SDS011;8517;53.546;10.104;2023-03-20T11:39:56;12.20;;;5.77;;
11220;SDS011;8517;53.546;10.104;2023-03-20T11:42:29;10.23;;;5.73;;
11220;SDS011;8517;53.546;10.104;2023-03-20T11:44:56;8.60;;;5.60;;
11220;SDS011;8517;53.546;10.104;2023-03-20T11:47:25;9.33;;;5.53;;
11220;SDS011;8517;53.546;10.104;2023-03-20T11:49:54;9.40;;;6.07;;
11220;SDS011;8517;53.546;10.104;2023-03-20T11:52:23;8.07;;;5.53;;
11220;SDS011;8517;53.546;10.104;2023-03-20T11:54:53;10.07;;;5.87;;
11220;SDS011;8517;53.546;10.104;2023-03-20T11:57:28;10.57;;;5.80;;
11220;SDS011;8517;53.546;10.104;2023-03-20T12:00:00;7.63;;;5.37;;
11220;SDS011;8517;53.546;10.104;2023-03-20T12:02:35;10.23;;;6.17;;
11220;SDS011;8517;53.546;10.104;2023-03-20T12:05:35;9.63;;;5.63;;
11220;SDS011;8517;53.546;10.104;2023-03-20T12:08:04;9.03;;;5.50;;
11220;SDS011;8517;53.546;10.104;2023-03-20T12:10:38;10.63;;;6.47;;
11220;SDS011;8517;53.546;10.104;2023-03-20T12:13:11;8.50;;;5.87;;
11220;SDS011;8517;53.546;10.104;2023-03-20T12:15:43;7.27;;;5.53;;
11220;SDS011;8517;53.546;10.104;2023-03-20T12:18:14;8.83;;;5.13;;
11220;SDS011;8517;53.546;10.104;2023-03-20T12:20:49;8.43;;;5.90;;
11220;SDS011;8517;53.546;10.104;2023-03-20T12:23:27;8.93;;;5.83;;
11220;SDS011;8517;53.546;10.104;2023-03-20T12:26:00;9.33;;;6.03;;
11220;SDS011;8517;53.546;10.104;2023-03-20T12:28:35;7.63;;;5.87;;
11220;SDS011;8517;53.546;10.104;2023-03-20T12:31:16;9.17;;;6.50;;
11220;SDS011;8517;53.546;10.104;2023-03-20T12:33:50;6.83;;;5.30;;
11220;SDS011;8517;53.546;10.104;2023-03-20T12:36:22;10.30;;;7.37;;
11220;SDS011;8517;53.546;10.104;2023-03-20T12:38:55;9.87;;;5.90;;
11220;SDS011;8517;53.546;10.104;2023-03-20T12:41:23;9.33;;;5.47;;
11220;SDS011;8517;53.546;10.104;2023-03-20T12:46:55;8.37;;;6.17;;
11220;SDS011;8517;53.546;10.104;2023-03-20T12:49:38;9.13;;;6.00;;
11220;SDS011;8517;53.546;10.104;2023-03-20T12:52:15;9.70;;;6.23;;
11220;SDS011;8517;53.546;10.104;2023-03-20T12:55:00;9.57;;;5.60;;
11220;SDS011;8517;53.546;10.104;2023-03-20T12:57:49;7.73;;;6.20;;
11220;SDS011;8517;53.546;10.104;2023-03-20T13:00:29;7.90;;;5.90;;
11220;SDS011;8517;53.546;10.104;2023-03-20T13:03:05;10.63;;;6.13;;
11220;SDS011;8517;53.546;10.104;2023-03-20T13:05:44;9.70;;;5.90;;
11220;SDS011;8517;53.546;10.104;2023-03-20T13:08:24;8.13;;;5.87;;
11220;SDS011;8517;53.546;10.104;2023-03-20T13:11:18;11.97;;;6.63;;
11220;SDS011;8517;53.546;10.104;2023-03-20T13:13:54;11.73;;;5.97;;
11220;SDS011;8517;53.546;10.104;2023-03-20T13:16:29;7.83;;;4.90;;
11220;SDS011;8517;53.546;10.104;2023-03-20T13:19:06;9.73;;;5.30;;
11220;SDS011;8517;53.546;10.104;2023-03-20T13:21:43;8.47;;;5.80;;
11220;SDS011;8517;53.546;10.104;2023-03-20T13:24:26;7.93;;;5.23;;
11220;SDS011;8517;53.546;10.104;2023-03-20T13:26:59;10.37;;;6.33;;
11220;SDS011;8517;53.546;10.104;2023-03-20T13:29:37;9.23;;;5.93;;
11220;SDS011;8517;53.546;10.104;2023-03-20T13:32:14;7.30;;;5.00;;
11220;SDS011;8517;53.546;10.104;2023-03-20T13:34:57;9.87;;;5.43;;
11220;SDS011;8517;53.546;10.104;2023-03-20T13:37:34;8.33;;;5.43;;
11220;SDS011;8517;53.546;10.104;2023-03-20T13:40:10;6.73;;;4.70;;
11220;SDS011;8517;53.546;10.104;2023-03-20T13:42:44;6.47;;;4.70;;
11220;SDS011;8517;53.546;10.104;2023-03-20T13:45:23;8.50;;;4.93;;
11220;SDS011;8517;53.546;10.104;2023-03-20T13:47:55;7.37;;;5.50;;
11220;SDS011;8517;53.546;10.104;2023-03-20T13:50:29;7.20;;;4.83;;
11220;SDS011;8517;53.546;10.104;2023-03-20T13:53:03;6.70;;;5.00;;
11220;SDS011;8517;53.546;10.104;2023-03-20T13:55:37;6.80;;;4.90;;
11220;SDS011;8517;53.546;10.104;2023-03-20T14:01:18;7.60;;;5.30;;
11220;SDS011;8517;53.546;10.104;2023-03-20T14:03:52;7.80;;;4.90;;
11220;SDS011;8517;53.546;10.104;2023-03-20T14:09:25;8.67;;;5.33;;
11220;SDS011;8517;53.546;10.104;2023-03-20T14:11:54;6.80;;;5.00;;
11220;SDS011;8517;53.546;10.104;2023-03-20T14:14:25;8.47;;;5.10;;
11220;SDS011;8517;53.546;10.104;2023-03-20T14:17:00;7.00;;;4.97;;
11220;SDS011;8517;53.546;10.104;2023-03-20T14:19:33;7.23;;;5.03;;
11220;SDS011;8517;53.546;10.104;2023-03-20T14:22:02;8.97;;;5.13;;
11220;SDS011;8517;53.546;10.104;2023-03-20T14:24:31;7.57;;;4.90;;
11220;SDS011;8517;53.546;10.104;2023-03-20T14:27:01;11.17;;;5.03;;
11220;SDS011;8517;53.546;10.104;2023-03-20T14:29:34;8.50;;;5.23;;
11220;SDS011;8517;53.546;10.104;2023-03-20T14:34:50;9.23;;;4.90;;
11220;SDS011;8517;53.546;10.104;2023-03-20T14:37:27;8.10;;;4.40;;
11220;SDS011;8517;53.546;10.104;2023-03-20T14:39:59;7.37;;;4.97;;
11220;SDS011;8517;53.546;10.104;2023-03-20T14:42:45;6.40;;;4.73;;
11220;SDS011;8517;53.546;10.104;2023-03-20T14:45:25;5.10;;;4.07;;
11220;SDS011;8517;53.546;10.104;2023-03-20T14:47:58;8.40;;;4.50;;
11220;SDS011;8517;53.546;10.104;2023-03-20T14:50:38;7.77;;;5.60;;
11220;SDS011;8517;53.546;10.104;2023-03-20T14:53:16;6.03;;;4.53;;
11220;SDS011;8517;53.546;10.104;2023-03-20T14:55:46;8.60;;;4.93;;
11220;SDS011;8517;53.546;10.104;2023-03-20T14:58:36;8.30;;;4.70;;
11220;SDS011;8517;53.546;10.104;2023-03-20T15:01:15;8.17;;;4.53;;
11220;SDS011;8517;53.546;10.104;2023-03-20T15:03:51;11.13;;;5.73;;
11220;SDS011;8517;53.546;10.104;2023-03-20T15:06:27;9.17;;;4.87;;
11220;SDS011;8517;53.546;10.104;2023-03-20T15:09:09;8.63;;;4.93;;
11220;SDS011;8517;53.546;10.104;2023-03-20T15:11:37;8.50;;;4.40;;
11220;SDS011;8517;53.546;10.104;2023-03-20T15:14:15;7.33;;;4.60;;
11220;SDS011;8517;53.546;10.104;2023-03-20T15:16:47;6.37;;;4.37;;
11220;SDS011;8517;53.546;10.104;2023-03-20T15:19:19;6.40;;;4.90;;
11220;SDS011;8517;53.546;10.104;2023-03-20T15:21:52;7.63;;;5.10;;
11220;SDS011;8517;53.546;10.104;2023-03-20T15:24:20;11.60;;;5.07;;
11220;SDS011;8517;53.546;10.104;2023-03-20T15:26:50;7.83;;;5.20;;
11220;SDS011;8517;53.546;10.104;2023-03-20T15:29:19;8.20;;;5.27;;